sensor_id;sensor_type;location;lat;lon;timestamp;P1;durP1;ratioP1;P2;durP2;ratioP2
31618;SDS011;18230;51.502;7.108;2023-08-06T00:01:59;5.93;;;3.00;;
31618;SDS011;18230;51.502;7.108;2023-08-06T00:07:00;4.22;;;2.72;;
31618;SDS011;18230;51.502;7.108;2023-08-06T00:12:00;9.18;;;3.03;;
31618;SDS011;18230;51.502;7.108;2023-08-06T00:17:01;5.22;;;3.00;;
31618;SDS011;18230;51.502;7.108;2023-08-06T00:22:02;4.15;;;2.85;;
31618;SDS011;18230;51.502;7.108;2023-08-06T00:27:03;7.80;;;3.25;;
31618;SDS011;18230;51.502;7.108;2023-08-06T00:32:04;6.80;;;4.03;;
31618;SDS011;18230;51.502;7.108;2023-08-06T00:37:04;9.95;;;4.05;;
31618;SDS011;18230;51.502;7.108;2023-08-06T00:42:05;7.32;;;3.85;;
31618;SDS011;18230;51.502;7.108;2023-08-06T00:47:06;5.78;;;4.10;;
31618;SDS011;18230;51.502;7.108;2023-08-06T00:52:08;6.40;;;3.63;;
31618;SDS011;18230;51.502;7.108;2023-08-06T00:57:09;8.07;;;4.13;;
31618;SDS011;18230;51.502;7.108;2023-08-06T01:02:12;10.20;;;4.28;;
31618;SDS011;18230;51.502;7.108;2023-08-06T01:13:18;8.45;;;4.03;;
31618;SDS011;18230;51.502;7.108;2023-08-06T01:18:44;7.32;;;4.00;;
31618;SDS011;18230;51.502;7.108;2023-08-06T01:23:46;8.60;;;3.97;;
31618;SDS011;18230;51.502;7.108;2023-08-06T01:28:49;5.30;;;3.78;;
31618;SDS011;18230;51.502;7.108;2023-08-06T01:33:58;6.13;;;3.90;;
31618;SDS011;18230;51.502;7.108;2023-08-06T01:39:01;5.53;;;3.53;;
31618;SDS011;18230;51.502;7.108;2023-08-06T01:44:02;8.10;;;3.80;;
31618;SDS011;18230;51.502;7.108;2023-08-06T01:49:02;5.57;;;4.22;;
31618;SDS011;18230;51.502;7.108;2023-08-06T01:54:03;4.85;;;3.83;;
31618;SDS011;18230;51.502;7.108;2023-08-06T01:59:04;8.43;;;4.35;;
31618;SDS011;18230;51.502;7.108;2023-08-06T02:04:04;7.95;;;4.78;;
31618;SDS011;18230;51.502;7.108;2023-08-06T02:09:05;10.95;;;4.43;;
31618;SDS011;18230;51.502;7.108;2023-08-06T02:14:06;9.27;;;4.28;;
31618;SDS011;18230;51.502;7.108;2023-08-06T02:19:06;12.38;;;4.82;;
31618;SDS011;18230;51.502;7.108;2023-08-06T02:24:07;8.90;;;4.57;;
31618;SDS011;18230;51.502;7.108;2023-08-06T02:29:08;5.90;;;4.30;;
31618;SDS011;18230;51.502;7.108;2023-08-06T02:34:08;9.35;;;4.25;;
31618;SDS011;18230;51.502;7.108;2023-08-06T02:39:09;9.30;;;4.30;;
31618;SDS011;18230;51.502;7.108;2023-08-06T02:44:10;5.55;;;3.28;;
31618;SDS011;18230;51.502;7.108;2023-08-06T02:49:10;5.35;;;3.30;;
31618;SDS011;18230;51.502;7.108;2023-08-06T02:54:11;7.03;;;3.60;;
31618;SDS011;18230;51.502;7.108;2023-08-06T02:59:12;10.27;;;3.00;;
31618;SDS011;18230;51.502;7.108;2023-08-06T03:04:13;5.43;;;3.10;;
31618;SDS011;18230;51.502;7.108;2023-08-06T03:09:14;10.70;;;3.25;;
31618;SDS011;18230;51.502;7.108;2023-08-06T03:14:14;5.40;;;3.45;;
31618;SDS011;18230;51.502;7.108;2023-08-06T03:19:15;4.95;;;3.20;;
31618;SDS011;18230;51.502;7.108;2023-08-06T03:24:15;10.07;;;3.20;;
31618;SDS011;18230;51.502;7.108;2023-08-06T03:29:16;6.47;;;3.22;;
31618;SDS011;18230;51.502;7.108;2023-08-06T03:34:17;4.65;;;3.00;;
31618;SDS011;18230;51.502;7.108;2023-08-06T03:39:18;3.85;;;3.25;;
31618;SDS011;18230;51.502;7.108;2023-08-06T03:44:18;5.57;;;2.83;;
31618;SDS011;18230;51.502;7.108;2023-08-06T03:49:19;9.32;;;2.95;;
31618;SDS011;18230;51.502;7.108;2023-08-06T03:54:19;4.07;;;2.63;;
31618;SDS011;18230;51.502;7.108;2023-08-06T03:59:20;5.32;;;3.10;;
31618;SDS011;18230;51.502;7.108;2023-08-06T04:04:21;5.00;;;3.05;;
31618;SDS011;18230;51.502;7.108;2023-08-06T04:09:21;4.82;;;3.10;;
31618;SDS011;18230;51.502;7.108;2023-08-06T04:14:28;6.50;;;3.20;;
31618;SDS011;18230;51.502;7.108;2023-08-06T04:24:40;9.43;;;3.05;;
31618;SDS011;18230;51.502;7.108;2023-08-06T04:29:43;4.60;;;3.28;;
31618;SDS011;18230;51.502;7.108;2023-08-06T04:34:44;11.25;;;2.80;;
31618;SDS011;18230;51.502;7.108;2023-08-06T04:39:48;7.07;;;3.40;;
31618;SDS011;18230;51.502;7.108;2023-08-06T04:44:54;7.22;;;3.25;;
31618;SDS011;18230;51.502;7.108;2023-08-06T04:50:01;5.57;;;3.00;;
31618;SDS011;18230;51.502;7.108;2023-08-06T04:55:04;8.18;;;3.78;;
31618;SDS011;18230;51.502;7.108;2023-08-06T05:00:06;4.05;;;2.90;;
31618;SDS011;18230;51.502;7.108;2023-08-06T05:05:07;6.47;;;2.38;;
31618;SDS011;18230;51.502;7.108;2023-08-06T05:10:14;7.50;;;3.38;;
31618;SDS011;18230;51.502;7.108;2023-08-06T05:15:15;5.68;;;3.50;;
31618;SDS011;18230;51.502;7.108;2023-08-06T05:20:19;11.75;;;3.55;;
31618;SDS011;18230;51.502;7.108;2023-08-06T05:25:22;3.47;;;2.45;;
31618;SDS011;18230;51.502;7.108;2023-08-06T05:30:23;4.75;;;3.17;;
31618;SDS011;18230;51.502;7.108;2023-08-06T05:35:27;4.63;;;2.55;;
31618;SDS011;18230;51.502;7.108;2023-08-06T05:40:37;5.55;;;2.67;;
31618;SDS011;18230;51.502;7.108;2023-08-06T05:45:38;7.13;;;3.03;;
31618;SDS011;18230;51.502;7.108;2023-08-06T05:50:39;5.10;;;2.75;;
31618;SDS011;18230;51.502;7.108;2023-08-06T05:55:39;9.05;;;3.10;;
31618;SDS011;18230;51.502;7.108;2023-08-06T06:00:44;8.57;;;3.85;;
31618;SDS011;18230;51.502;7.108;2023-08-06T06:05:45;5.80;;;3.65;;
31618;SDS011;18230;51.502;7.108;2023-08-06T06:10:46;8.85;;;4.32;;
31618;SDS011;18230;51.502;7.108;2023-08-06T06:15:46;7.07;;;3.20;;
31618;SDS011;18230;51.502;7.108;2023-08-06T06:20:50;7.70;;;2.85;;
31618;SDS011;18230;51.502;7.108;2023-08-06T06:26:14;6.53;;;2.50;;
31618;SDS011;18230;51.502;7.108;2023-08-06T06:31:21;4.00;;;2.75;;
31618;SDS011;18230;51.502;7.108;2023-08-06T06:36:31;6.97;;;2.42;;
31618;SDS011;18230;51.502;7.108;2023-08-06T06:41:31;3.58;;;2.10;;
31618;SDS011;18230;51.502;7.108;2023-08-06T06:46:44;4.45;;;2.20;;
31618;SDS011;18230;51.502;7.108;2023-08-06T06:51:52;7.17;;;2.57;;
31618;SDS011;18230;51.502;7.108;2023-08-06T06:56:53;6.03;;;2.63;;
31618;SDS011;18230;51.502;7.108;2023-08-06T07:01:56;5.15;;;2.35;;
31618;SDS011;18230;51.502;7.108;2023-08-06T07:06:57;6.57;;;2.38;;
31618;SDS011;18230;51.502;7.108;2023-08-06T07:12:13;4.03;;;2.30;;
31618;SDS011;18230;51.502;7.108;2023-08-06T07:17:17;8.40;;;2.42;;
31618;SDS011;18230;51.502;7.108;2023-08-06T07:22:18;4.38;;;1.95;;
31618;SDS011;18230;51.502;7.108;2023-08-06T07:27:27;4.50;;;2.20;;
31618;SDS011;18230;51.502;7.108;2023-08-06T07:32:28;6.55;;;2.00;;
31618;SDS011;18230;51.502;7.108;2023-08-06T07:37:35;5.82;;;2.08;;
31618;SDS011;18230;51.502;7.108;2023-08-06T07:42:41;5.90;;;2.10;;
31618;SDS011;18230;51.502;7.108;2023-08-06T07:47:42;5.97;;;2.10;;
31618;SDS011;18230;51.502;7.108;2023-08-06T07:52:51;3.60;;;1.80;;
31618;SDS011;18230;51.502;7.108;2023-08-06T07:57:53;6.45;;;2.50;;
31618;SDS011;18230;51.502;7.108;2023-08-06T08:02:54;2.80;;;1.80;;
31618;SDS011;18230;51.502;7.108;2023-08-06T08:07:54;7.07;;;2.40;;
31618;SDS011;18230;51.502;7.108;2023-08-06T08:12:55;5.38;;;2.80;;
31618;SDS011;18230;51.502;7.108;2023-08-06T08:17:56;5.50;;;2.70;;
31618;SDS011;18230;51.502;7.108;2023-08-06T08:22:57;5.55;;;2.47;;
31618;SDS011;18230;51.502;7.108;2023-08-06T08:27:59;3.08;;;1.90;;
31618;SDS011;18230;51.502;7.108;2023-08-06T08:33:00;6.03;;;2.60;;
31618;SDS011;18230;51.502;7.108;2023-08-06T08:38:00;6.22;;;3.47;;
31618;SDS011;18230;51.502;7.108;2023-08-06T08:43:01;3.85;;;2.60;;
31618;SDS011;18230;51.502;7.108;2023-08-06T08:48:02;6.38;;;3.03;;
31618;SDS011;18230;51.502;7.108;2023-08-06T08:53:03;5.30;;;2.97;;
31618;SDS011;18230;51.502;7.108;2023-08-06T08:58:05;6.28;;;2.88;;
31618;SDS011;18230;51.502;7.108;2023-08-06T09:03:06;4.65;;;2.45;;
31618;SDS011;18230;51.502;7.108;2023-08-06T09:08:07;3.97;;;2.17;;
31618;SDS011;18230;51.502;7.108;2023-08-06T09:13:13;4.70;;;2.65;;
31618;SDS011;18230;51.502;7.108;2023-08-06T09:18:14;5.25;;;2.38;;
31618;SDS011;18230;51.502;7.108;2023-08-06T09:23:14;9.07;;;2.85;;
31618;SDS011;18230;51.502;7.108;2023-08-06T09:28:15;10.32;;;2.92;;
31618;SDS011;18230;51.502;7.108;2023-08-06T09:33:17;4.70;;;3.00;;
31618;SDS011;18230;51.502;7.108;2023-08-06T09:38:18;4.97;;;3.05;;
31618;SDS011;18230;51.502;7.108;2023-08-06T09:43:22;6.40;;;3.47;;
31618;SDS011;18230;51.502;7.108;2023-08-06T09:48:25;6.57;;;4.20;;
31618;SDS011;18230;51.502;7.108;2023-08-06T09:53:29;5.95;;;3.30;;
31618;SDS011;18230;51.502;7.108;2023-08-06T09:58:31;8.23;;;4.20;;
31618;SDS011;18230;51.502;7.108;2023-08-06T10:03:32;5.15;;;3.38;;
31618;SDS011;18230;51.502;7.108;2023-08-06T10:08:35;6.10;;;3.05;;
31618;SDS011;18230;51.502;7.108;2023-08-06T10:13:35;5.53;;;2.63;;
31618;SDS011;18230;51.502;7.108;2023-08-06T10:18:37;5.07;;;2.80;;
31618;SDS011;18230;51.502;7.108;2023-08-06T10:23:40;4.47;;;2.28;;
31618;SDS011;18230;51.502;7.108;2023-08-06T10:28:41;5.45;;;2.50;;
31618;SDS011;18230;51.502;7.108;2023-08-06T10:33:42;4.15;;;2.97;;
31618;SDS011;18230;51.502;7.108;2023-08-06T10:38:44;3.50;;;2.80;;
31618;SDS011;18230;51.502;7.108;2023-08-06T10:43:46;4.53;;;3.55;;
31618;SDS011;18230;51.502;7.108;2023-08-06T10:48:47;8.73;;;4.68;;
31618;SDS011;18230;51.502;7.108;2023-08-06T10:53:49;8.27;;;4.88;;
31618;SDS011;18230;51.502;7.108;2023-08-06T10:58:51;6.65;;;3.17;;
31618;SDS011;18230;51.502;7.108;2023-08-06T11:03:53;3.28;;;2.95;;
31618;SDS011;18230;51.502;7.108;2023-08-06T11:08:55;4.20;;;3.30;;
31618;SDS011;18230;51.502;7.108;2023-08-06T11:13:55;5.03;;;3.50;;
31618;SDS011;18230;51.502;7.108;2023-08-06T11:18:56;5.68;;;3.85;;
31618;SDS011;18230;51.502;7.108;2023-08-06T11:23:59;4.97;;;3.70;;
31618;SDS011;18230;51.502;7.108;2023-08-06T11:29:00;7.55;;;4.60;;
31618;SDS011;18230;51.502;7.108;2023-08-06T11:34:01;5.60;;;5.10;;
31618;SDS011;18230;51.502;7.108;2023-08-06T11:39:02;7.95;;;7.15;;
31618;SDS011;18230;51.502;7.108;2023-08-06T11:44:05;8.85;;;7.95;;
31618;SDS011;18230;51.502;7.108;2023-08-06T11:49:06;9.50;;;8.45;;
31618;SDS011;18230;51.502;7.108;2023-08-06T11:54:06;8.45;;;7.55;;
31618;SDS011;18230;51.502;7.108;2023-08-06T11:59:08;9.55;;;8.43;;
31618;SDS011;18230;51.502;7.108;2023-08-06T12:04:08;8.85;;;6.55;;
31618;SDS011;18230;51.502;7.108;2023-08-06T12:09:12;5.20;;;3.28;;
31618;SDS011;18230;51.502;7.108;2023-08-06T12:14:13;5.05;;;3.17;;
31618;SDS011;18230;51.502;7.108;2023-08-06T12:19:13;5.53;;;3.13;;
31618;SDS011;18230;51.502;7.108;2023-08-06T12:24:14;4.20;;;3.80;;
31618;SDS011;18230;51.502;7.108;2023-08-06T12:29:15;3.90;;;3.50;;
31618;SDS011;18230;51.502;7.108;2023-08-06T12:34:19;16.85;;;2.67;;
31618;SDS011;18230;51.502;7.108;2023-08-06T12:39:23;2.13;;;1.40;;
31618;SDS011;18230;51.502;7.108;2023-08-06T12:44:27;2.22;;;1.00;;
31618;SDS011;18230;51.502;7.108;2023-08-06T12:49:28;2.20;;;1.05;;
31618;SDS011;18230;51.502;7.108;2023-08-06T12:54:30;2.78;;;1.30;;
31618;SDS011;18230;51.502;7.108;2023-08-06T12:59:36;1.05;;;0.63;;
31618;SDS011;18230;51.502;7.108;2023-08-06T13:04:37;1.48;;;0.63;;
31618;SDS011;18230;51.502;7.108;2023-08-06T13:09:38;3.95;;;0.77;;
31618;SDS011;18230;51.502;7.108;2023-08-06T13:14:38;1.05;;;0.60;;
31618;SDS011;18230;51.502;7.108;2023-08-06T13:19:39;1.92;;;0.80;;
31618;SDS011;18230;51.502;7.108;2023-08-06T13:24:39;1.10;;;0.70;;
31618;SDS011;18230;51.502;7.108;2023-08-06T13:29:40;1.67;;;0.90;;
31618;SDS011;18230;51.502;7.108;2023-08-06T13:34:41;3.35;;;1.13;;
31618;SDS011;18230;51.502;7.108;2023-08-06T13:39:45;5.75;;;1.00;;
31618;SDS011;18230;51.502;7.108;2023-08-06T13:44:48;1.63;;;1.00;;
31618;SDS011;18230;51.502;7.108;2023-08-06T13:49:50;6.90;;;1.40;;
31618;SDS011;18230;51.502;7.108;2023-08-06T13:54:50;2.42;;;1.30;;
31618;SDS011;18230;51.502;7.108;2023-08-06T13:59:53;1.85;;;1.42;;
31618;SDS011;18230;51.502;7.108;2023-08-06T14:04:54;2.88;;;2.15;;
31618;SDS011;18230;51.502;7.108;2023-08-06T14:09:55;3.78;;;2.53;;
31618;SDS011;18230;51.502;7.108;2023-08-06T14:14:57;3.85;;;2.15;;
31618;SDS011;18230;51.502;7.108;2023-08-06T14:19:59;3.20;;;2.30;;
31618;SDS011;18230;51.502;7.108;2023-08-06T14:25:00;3.65;;;2.63;;
31618;SDS011;18230;51.502;7.108;2023-08-06T14:30:01;2.33;;;2.05;;
31618;SDS011;18230;51.502;7.108;2023-08-06T14:35:03;3.78;;;2.22;;
31618;SDS011;18230;51.502;7.108;2023-08-06T14:40:04;4.45;;;2.70;;
31618;SDS011;18230;51.502;7.108;2023-08-06T14:45:05;7.75;;;2.90;;
31618;SDS011;18230;51.502;7.108;2023-08-06T14:50:06;3.40;;;2.58;;
31618;SDS011;18230;51.502;7.108;2023-08-06T14:55:07;3.72;;;2.90;;
31618;SDS011;18230;51.502;7.108;2023-08-06T15:00:08;5.07;;;3.00;;
31618;SDS011;18230;51.502;7.108;2023-08-06T15:05:10;3.65;;;2.60;;
31618;SDS011;18230;51.502;7.108;2023-08-06T15:10:11;5.93;;;3.15;;
31618;SDS011;18230;51.502;7.108;2023-08-06T15:15:11;3.70;;;2.92;;
31618;SDS011;18230;51.502;7.108;2023-08-06T15:20:12;3.88;;;2.70;;
31618;SDS011;18230;51.502;7.108;2023-08-06T15:25:13;5.72;;;2.50;;
31618;SDS011;18230;51.502;7.108;2023-08-06T15:30:13;7.30;;;4.55;;
31618;SDS011;18230;51.502;7.108;2023-08-06T15:35:14;7.68;;;4.32;;
31618;SDS011;18230;51.502;7.108;2023-08-06T15:40:15;7.43;;;3.20;;
31618;SDS011;18230;51.502;7.108;2023-08-06T15:45:15;9.65;;;4.55;;
31618;SDS011;18230;51.502;7.108;2023-08-06T15:50:16;11.55;;;5.15;;
31618;SDS011;18230;51.502;7.108;2023-08-06T15:55:17;10.68;;;5.93;;
31618;SDS011;18230;51.502;7.108;2023-08-06T16:00:17;13.77;;;7.15;;
31618;SDS011;18230;51.502;7.108;2023-08-06T16:05:18;7.30;;;3.63;;
31618;SDS011;18230;51.502;7.108;2023-08-06T16:10:19;25.58;;;12.57;;
31618;SDS011;18230;51.502;7.108;2023-08-06T16:15:20;11.32;;;4.25;;
31618;SDS011;18230;51.502;7.108;2023-08-06T16:20:20;7.35;;;4.13;;
31618;SDS011;18230;51.502;7.108;2023-08-06T16:25:21;11.95;;;6.32;;
31618;SDS011;18230;51.502;7.108;2023-08-06T16:30:22;4.50;;;2.28;;
31618;SDS011;18230;51.502;7.108;2023-08-06T16:35:22;3.45;;;2.20;;
31618;SDS011;18230;51.502;7.108;2023-08-06T16:40:23;3.28;;;2.05;;
31618;SDS011;18230;51.502;7.108;2023-08-06T16:45:24;3.30;;;2.30;;
31618;SDS011;18230;51.502;7.108;2023-08-06T16:50:24;4.15;;;2.00;;
31618;SDS011;18230;51.502;7.108;2023-08-06T16:55:25;3.38;;;2.13;;
31618;SDS011;18230;51.502;7.108;2023-08-06T17:00:25;3.85;;;2.75;;
31618;SDS011;18230;51.502;7.108;2023-08-06T17:05:27;3.75;;;2.45;;
31618;SDS011;18230;51.502;7.108;2023-08-06T17:10:32;3.95;;;2.55;;
31618;SDS011;18230;51.502;7.108;2023-08-06T17:15:33;6.45;;;3.30;;
31618;SDS011;18230;51.502;7.108;2023-08-06T17:20:33;4.47;;;2.75;;
31618;SDS011;18230;51.502;7.108;2023-08-06T17:25:34;5.20;;;3.17;;
31618;SDS011;18230;51.502;7.108;2023-08-06T17:30:35;6.03;;;2.92;;
31618;SDS011;18230;51.502;7.108;2023-08-06T17:35:40;5.30;;;3.22;;
31618;SDS011;18230;51.502;7.108;2023-08-06T17:40:42;4.30;;;3.00;;
31618;SDS011;18230;51.502;7.108;2023-08-06T17:45:43;7.03;;;3.03;;
31618;SDS011;18230;51.502;7.108;2023-08-06T17:50:45;7.22;;;3.55;;
31618;SDS011;18230;51.502;7.108;2023-08-06T17:55:46;5.53;;;3.30;;
31618;SDS011;18230;51.502;7.108;2023-08-06T18:00:48;5.15;;;3.60;;
31618;SDS011;18230;51.502;7.108;2023-08-06T18:05:56;5.15;;;3.00;;
31618;SDS011;18230;51.502;7.108;2023-08-06T18:10:57;4.78;;;2.50;;
31618;SDS011;18230;51.502;7.108;2023-08-06T18:15:58;4.82;;;2.45;;
31618;SDS011;18230;51.502;7.108;2023-08-06T18:20:58;2.97;;;1.77;;
31618;SDS011;18230;51.502;7.108;2023-08-06T18:25:59;5.60;;;1.83;;
31618;SDS011;18230;51.502;7.108;2023-08-06T18:31:00;5.30;;;1.88;;
31618;SDS011;18230;51.502;7.108;2023-08-06T18:36:00;5.40;;;1.73;;
31618;SDS011;18230;51.502;7.108;2023-08-06T18:41:01;3.88;;;1.50;;
31618;SDS011;18230;51.502;7.108;2023-08-06T18:46:02;6.72;;;1.60;;
31618;SDS011;18230;51.502;7.108;2023-08-06T18:51:02;3.85;;;1.60;;
31618;SDS011;18230;51.502;7.108;2023-08-06T18:56:03;7.82;;;1.38;;
31618;SDS011;18230;51.502;7.108;2023-08-06T19:01:04;5.53;;;1.60;;
31618;SDS011;18230;51.502;7.108;2023-08-06T19:06:04;9.43;;;2.00;;
31618;SDS011;18230;51.502;7.108;2023-08-06T19:11:06;7.93;;;1.45;;
31618;SDS011;18230;51.502;7.108;2023-08-06T19:16:07;9.25;;;1.70;;
31618;SDS011;18230;51.502;7.108;2023-08-06T19:21:07;3.63;;;1.30;;
31618;SDS011;18230;51.502;7.108;2023-08-06T19:26:08;9.48;;;1.70;;
31618;SDS011;18230;51.502;7.108;2023-08-06T19:31:09;8.13;;;1.13;;
31618;SDS011;18230;51.502;7.108;2023-08-06T19:36:10;11.05;;;1.52;;
31618;SDS011;18230;51.502;7.108;2023-08-06T19:41:10;9.68;;;1.38;;
31618;SDS011;18230;51.502;7.108;2023-08-06T19:46:11;10.85;;;1.50;;
31618;SDS011;18230;51.502;7.108;2023-08-06T19:51:12;9.55;;;1.60;;
31618;SDS011;18230;51.502;7.108;2023-08-06T21:15:11;14.40;;;2.22;;
31618;SDS011;18230;51.502;7.108;2023-08-06T21:20:11;11.48;;;2.42;;
31618;SDS011;18230;51.502;7.108;2023-08-06T21:25:12;11.00;;;2.95;;
31618;SDS011;18230;51.502;7.108;2023-08-06T21:30:13;13.50;;;2.33;;
31618;SDS011;18230;51.502;7.108;2023-08-06T21:35:14;10.82;;;1.80;;
31618;SDS011;18230;51.502;7.108;2023-08-06T21:40:15;8.13;;;2.17;;
31618;SDS011;18230;51.502;7.108;2023-08-06T21:45:15;9.10;;;2.53;;
31618;SDS011;18230;51.502;7.108;2023-08-06T21:50:16;10.68;;;2.30;;
31618;SDS011;18230;51.502;7.108;2023-08-06T21:55:17;9.05;;;2.05;;
31618;SDS011;18230;51.502;7.108;2023-08-06T22:00:18;13.65;;;2.47;;
31618;SDS011;18230;51.502;7.108;2023-08-06T22:05:18;11.60;;;2.25;;
31618;SDS011;18230;51.502;7.108;2023-08-06T22:10:19;5.50;;;1.83;;
31618;SDS011;18230;51.502;7.108;2023-08-06T22:15:20;11.57;;;2.40;;
31618;SDS011;18230;51.502;7.108;2023-08-06T22:20:20;5.95;;;2.88;;
31618;SDS011;18230;51.502;7.108;2023-08-06T22:25:21;7.57;;;2.65;;
31618;SDS011;18230;51.502;7.108;2023-08-06T22:30:21;12.60;;;5.30;;
31618;SDS011;18230;51.502;7.108;2023-08-06T22:35:22;11.60;;;5.03;;
31618;SDS011;18230;51.502;7.108;2023-08-06T22:40:24;12.10;;;4.57;;
31618;SDS011;18230;51.502;7.108;2023-08-06T22:45:25;10.10;;;5.60;;
31618;SDS011;18230;51.502;7.108;2023-08-06T22:50:25;14.23;;;7.97;;
31618;SDS011;18230;51.502;7.108;2023-08-06T22:55:26;13.43;;;8.38;;
31618;SDS011;18230;51.502;7.108;2023-08-06T23:00:27;16.73;;;9.40;;
31618;SDS011;18230;51.502;7.108;2023-08-06T23:05:28;23.50;;;10.02;;
31618;SDS011;18230;51.502;7.108;2023-08-06T23:10:28;22.08;;;11.18;;
31618;SDS011;18230;51.502;7.108;2023-08-06T23:15:29;25.58;;;12.05;;
31618;SDS011;18230;51.502;7.108;2023-08-06T23:20:30;19.42;;;10.35;;
31618;SDS011;18230;51.502;7.108;2023-08-06T23:25:33;20.77;;;10.02;;
31618;SDS011;18230;51.502;7.108;2023-08-06T23:30:35;19.75;;;10.00;;
31618;SDS011;18230;51.502;7.108;2023-08-06T23:35:36;19.02;;;9.38;;
31618;SDS011;18230;51.502;7.108;2023-08-06T23:40:37;16.27;;;8.45;;
31618;SDS011;18230;51.502;7.108;2023-08-06T23:45:37;12.35;;;7.50;;
31618;SDS011;18230;51.502;7.108;2023-08-06T23:50:38;16.23;;;7.43;;
31618;SDS011;18230;51.502;7.108;2023-08-06T23:55:38;13.43;;;6.47;;
